createdAt,value
2022-11-29T00:01:09.813Z,17.42
2022-11-29T00:03:19.136Z,17.67
2022-11-29T00:05:26.168Z,17.55
2022-11-29T00:07:33.513Z,16.70
2022-11-29T00:09:40.378Z,14.75
2022-11-29T00:12:03.791Z,17.70
2022-11-29T00:14:11.125Z,16.73
2022-11-29T00:16:18.409Z,15.02
2022-11-29T00:18:26.924Z,15.48
2022-11-29T00:20:34.718Z,16.83
2022-11-29T00:22:41.596Z,16.38
2022-11-29T00:24:48.726Z,15.80
2022-11-29T00:26:55.804Z,17.88
2022-11-29T00:29:02.882Z,22.30
2022-11-29T00:31:18.393Z,22.08
2022-11-29T00:33:27.896Z,18.50
2022-11-29T00:35:34.752Z,18.42
2022-11-29T00:37:42.362Z,18.13
2022-11-29T00:39:49.133Z,17.98
2022-11-29T00:41:56.263Z,18.17
2022-11-29T00:44:03.086Z,15.77
2022-11-29T00:46:11.165Z,14.60
2022-11-29T00:48:18.167Z,14.93
2022-11-29T00:50:26.938Z,14.38
2022-11-29T00:52:33.881Z,14.07
2022-11-29T00:54:40.870Z,14.55
2022-11-29T00:56:47.815Z,12.52
2022-11-29T00:58:55.252Z,12.70
2022-11-29T01:01:02.034Z,13.32
2022-11-29T01:03:09.154Z,17.17
2022-11-29T01:05:15.874Z,11.48
2022-11-29T01:07:24.741Z,12.82
2022-11-29T01:09:31.571Z,12.80
2022-11-29T01:11:39.058Z,12.98
2022-11-29T01:13:46.239Z,10.27
2022-11-29T01:15:59.821Z,13.32
2022-11-29T01:18:06.731Z,10.50
2022-11-29T01:20:17.055Z,12.00
2022-11-29T01:22:25.566Z,11.50
2022-11-29T01:24:34.028Z,13.05
2022-11-29T01:26:41.158Z,9.80
2022-11-29T01:28:49.977Z,10.23
2022-11-29T01:30:56.865Z,9.88
2022-11-29T01:33:03.981Z,10.27
2022-11-29T01:35:11.829Z,11.02
2022-11-29T01:37:19.114Z,8.73
2022-11-29T01:39:27.625Z,11.20
2022-11-29T01:41:36.041Z,10.43
2022-11-29T01:43:58.936Z,9.90
2022-11-29T01:46:06.084Z,9.15
2022-11-29T01:48:13.813Z,9.77
2022-11-29T01:50:21.403Z,9.27
2022-11-29T01:52:31.452Z,10.40
2022-11-29T01:54:45.011Z,11.70
2022-11-29T01:56:53.752Z,11.32
2022-11-29T01:59:00.984Z,10.43
2022-11-29T02:01:07.803Z,9.93
2022-11-29T02:03:17.395Z,9.43
2022-11-29T02:05:25.143Z,8.60
2022-11-29T02:07:32.223Z,9.75
2022-11-29T02:09:40.784Z,8.85
2022-11-29T02:12:09.061Z,7.20
2022-11-29T02:14:33.239Z,11.63
2022-11-29T02:16:46.207Z,9.57
2022-11-29T02:19:06.292Z,8.52
2022-11-29T02:21:41.172Z,8.70
2022-11-29T02:24:14.006Z,8.65
2022-11-29T02:26:40.900Z,8.07
2022-11-29T02:29:29.451Z,8.35
2022-11-29T02:32:08.120Z,7.75
2022-11-29T02:34:40.752Z,8.75
2022-11-29T02:37:07.253Z,7.88
2022-11-29T02:40:02.389Z,8.50
2022-11-29T02:42:56.449Z,7.03
2022-11-29T02:45:13.686Z,6.68
2022-11-29T02:47:32.235Z,7.05
2022-11-29T02:50:00.309Z,7.93
2022-11-29T02:52:11.020Z,5.95
2022-11-29T02:54:24.858Z,7.10
2022-11-29T02:56:37.417Z,6.40
2022-11-29T02:58:50.383Z,9.60
2022-11-29T03:01:03.888Z,6.25
2022-11-29T03:03:21.658Z,8.00
2022-11-29T03:05:41.729Z,8.20
2022-11-29T03:07:56.717Z,7.43
2022-11-29T03:10:11.299Z,5.88
2022-11-29T03:12:28.923Z,5.50
2022-11-29T03:14:50.697Z,6.18
2022-11-29T03:17:07.553Z,5.57
2022-11-29T03:19:36.915Z,7.18
2022-11-29T03:21:59.194Z,7.05
2022-11-29T03:26:18.061Z,7.88
2022-11-29T03:28:29.289Z,7.18
2022-11-29T03:30:39.723Z,8.20
2022-11-29T03:32:53.840Z,7.15
2022-11-29T03:35:07.526Z,9.02
2022-11-29T03:37:20.029Z,7.03
2022-11-29T03:39:33.304Z,6.28
2022-11-29T03:41:46.477Z,7.22
2022-11-29T03:44:00.621Z,4.90
2022-11-29T03:46:11.155Z,5.50
2022-11-29T03:48:21.695Z,5.53
2022-11-29T03:50:32.037Z,6.78
2022-11-29T03:52:47.830Z,5.63
2022-11-29T03:55:15.140Z,5.32
2022-11-29T03:57:29.127Z,7.53
2022-11-29T03:59:54.992Z,6.10
2022-11-29T04:02:29.967Z,4.97
2022-11-29T04:05:16.570Z,6.70
2022-11-29T04:07:46.643Z,8.00
2022-11-29T04:10:11.603Z,6.75
2022-11-29T04:12:52.167Z,4.55
2022-11-29T04:15:28.738Z,4.85
2022-11-29T04:18:01.876Z,5.63
2022-11-29T04:20:39.690Z,3.70
2022-11-29T04:25:51.793Z,5.35
2022-11-29T04:28:22.477Z,4.97
2022-11-29T04:30:30.987Z,7.80
2022-11-29T04:33:11.353Z,5.32
2022-11-29T04:35:38.598Z,5.32
2022-11-29T04:38:09.899Z,6.30
2022-11-29T04:40:40.066Z,4.72
2022-11-29T04:43:13.104Z,5.18
2022-11-29T04:45:50.929Z,5.47
2022-11-29T04:48:12.309Z,7.43
2022-11-29T04:50:40.288Z,5.90
2022-11-29T04:53:10.563Z,7.13
2022-11-29T04:55:31.128Z,3.90
2022-11-29T04:57:47.759Z,4.47
2022-11-29T05:00:00.308Z,5.82
2022-11-29T05:02:16.948Z,4.82
2022-11-29T05:04:28.966Z,4.32
2022-11-29T05:08:52.034Z,4.78
2022-11-29T05:11:08.694Z,4.28
2022-11-29T05:13:29.796Z,4.05
2022-11-29T05:16:22.267Z,4.45
2022-11-29T05:18:44.624Z,4.03
2022-11-29T05:20:58.823Z,4.78
2022-11-29T05:23:21.348Z,5.93
2022-11-29T05:25:46.566Z,4.35
2022-11-29T05:27:57.895Z,4.32
2022-11-29T05:30:12.502Z,5.70
2022-11-29T05:32:31.252Z,9.30
2022-11-29T05:35:07.161Z,6.68
2022-11-29T05:37:28.983Z,4.32
2022-11-29T05:39:47.891Z,4.65
2022-11-29T05:42:10.979Z,7.20
2022-11-29T05:44:24.785Z,6.47
2022-11-29T05:46:41.017Z,5.50
2022-11-29T05:48:57.577Z,6.78
2022-11-29T05:51:14.795Z,6.35
2022-11-29T05:53:28.684Z,4.65
2022-11-29T05:55:47.539Z,3.90
2022-11-29T05:58:00.492Z,3.92
2022-11-29T06:00:10.811Z,4.97
2022-11-29T06:02:36.321Z,4.68
2022-11-29T06:04:54.766Z,3.72
2022-11-29T06:07:08.074Z,4.72
2022-11-29T06:11:48.517Z,5.65
2022-11-29T06:14:09.521Z,7.68
2022-11-29T06:16:38.232Z,5.53
2022-11-29T06:19:13.756Z,6.75
2022-11-29T06:21:32.609Z,4.30
2022-11-29T06:24:00.169Z,6.50
2022-11-29T06:26:23.736Z,5.85
2022-11-29T06:28:42.389Z,4.18
2022-11-29T06:31:02.145Z,4.18
2022-11-29T06:33:19.892Z,5.15
2022-11-29T06:35:46.732Z,5.43
2022-11-29T06:37:56.116Z,4.40
2022-11-29T06:40:03.760Z,6.43
2022-11-29T06:42:10.534Z,4.40
2022-11-29T06:44:18.584Z,5.90
2022-11-29T06:46:36.210Z,4.90
2022-11-29T06:48:48.561Z,4.78
2022-11-29T06:51:04.096Z,8.43
2022-11-29T06:53:20.129Z,5.03
2022-11-29T06:55:34.777Z,6.55
2022-11-29T06:57:56.770Z,6.05
2022-11-29T07:00:12.701Z,6.85
2022-11-29T07:02:34.938Z,7.53
2022-11-29T07:04:56.555Z,6.20
2022-11-29T07:09:17.266Z,6.15
2022-11-29T07:11:25.120Z,5.50
2022-11-29T07:13:32.502Z,5.05
2022-11-29T07:15:42.142Z,4.75
2022-11-29T07:18:03.043Z,4.75
2022-11-29T07:20:20.674Z,5.75
2022-11-29T07:22:44.544Z,4.47
2022-11-29T07:25:02.719Z,6.47
2022-11-29T07:27:18.363Z,5.60
2022-11-29T07:29:35.478Z,4.72
2022-11-29T07:31:53.900Z,3.67
2022-11-29T07:34:08.169Z,6.72
2022-11-29T07:36:21.547Z,6.22
2022-11-29T07:38:38.715Z,8.73
2022-11-29T07:40:54.188Z,7.35
2022-11-29T07:43:14.990Z,6.18
2022-11-29T07:45:29.191Z,5.95
2022-11-29T07:47:36.323Z,6.47
2022-11-29T07:49:43.088Z,6.97
2022-11-29T07:51:50.321Z,7.05
2022-11-29T07:53:58.833Z,6.25
2022-11-29T07:56:05.966Z,6.85
2022-11-29T07:58:15.040Z,5.07
2022-11-29T08:00:23.450Z,5.63
2022-11-29T08:02:35.373Z,5.32
2022-11-29T08:04:45.937Z,5.00
2022-11-29T08:06:52.881Z,5.07
2022-11-29T08:09:03.340Z,5.65
2022-11-29T08:11:14.159Z,4.85
2022-11-29T08:13:23.238Z,5.78
2022-11-29T08:15:30.056Z,6.07
2022-11-29T08:17:37.183Z,4.30
2022-11-29T08:19:43.855Z,4.53
2022-11-29T08:21:52.161Z,4.72
2022-11-29T08:23:58.936Z,9.88
2022-11-29T08:26:08.421Z,6.00
2022-11-29T08:28:15.247Z,6.28
2022-11-29T08:30:23.401Z,6.35
2022-11-29T08:32:33.744Z,4.45
2022-11-29T08:34:40.731Z,4.68
2022-11-29T08:36:49.552Z,5.07
2022-11-29T08:39:03.407Z,7.30
2022-11-29T08:41:16.357Z,7.85
2022-11-29T08:43:23.843Z,7.33
2022-11-29T08:45:30.708Z,11.75
2022-11-29T08:47:42.200Z,8.55
2022-11-29T08:50:04.704Z,6.45
2022-11-29T08:52:30.511Z,7.47
2022-11-29T08:54:37.691Z,7.00
2022-11-29T08:59:13.354Z,4.45
2022-11-29T09:01:21.640Z,8.10
2022-11-29T09:03:45.689Z,7.43
2022-11-29T09:05:52.772Z,6.07
2022-11-29T09:08:01.430Z,7.07
2022-11-29T09:10:09.486Z,5.22
2022-11-29T09:12:18.305Z,5.72
2022-11-29T09:14:25.080Z,4.63
2022-11-29T09:16:34.158Z,7.68
2022-11-29T09:18:42.578Z,9.13
2022-11-29T09:20:51.129Z,5.25
2022-11-29T09:22:57.850Z,4.75
2022-11-29T09:25:04.880Z,4.10
2022-11-29T09:27:14.670Z,5.63
2022-11-29T09:29:23.798Z,6.18
2022-11-29T09:31:31.107Z,4.30
2022-11-29T09:33:38.418Z,7.65
2022-11-29T09:35:45.295Z,6.28
2022-11-29T09:37:52.929Z,4.18
2022-11-29T09:40:02.760Z,5.50
2022-11-29T09:42:28.241Z,5.03
2022-11-29T09:44:49.130Z,7.13
2022-11-29T09:47:04.821Z,7.15
2022-11-29T09:49:30.538Z,5.85
2022-11-29T09:51:46.631Z,7.38
2022-11-29T09:54:07.070Z,6.38
2022-11-29T09:56:24.903Z,9.80
2022-11-29T09:58:34.746Z,14.23
2022-11-29T10:00:51.450Z,11.00
2022-11-29T10:03:04.112Z,8.63
2022-11-29T10:05:20.100Z,9.05
2022-11-29T10:07:33.880Z,8.75
2022-11-29T10:09:47.111Z,8.70
2022-11-29T10:12:06.425Z,11.80
2022-11-29T10:14:18.982Z,8.32
2022-11-29T10:16:37.181Z,6.65
2022-11-29T10:18:49.425Z,9.20
2022-11-29T10:21:00.175Z,9.38
2022-11-29T10:23:17.613Z,8.90
2022-11-29T10:25:28.685Z,7.45
2022-11-29T10:27:36.427Z,9.90
2022-11-29T10:29:43.186Z,9.70
2022-11-29T10:31:52.070Z,8.88
2022-11-29T10:33:59.559Z,9.00
2022-11-29T10:36:08.584Z,9.50
2022-11-29T10:38:32.988Z,6.95
2022-11-29T10:40:42.815Z,9.13
2022-11-29T10:42:54.145Z,9.68
2022-11-29T10:45:02.706Z,7.22
2022-11-29T10:47:11.259Z,7.28
2022-11-29T10:49:21.155Z,7.43
2022-11-29T10:51:28.397Z,6.55
2022-11-29T10:53:40.954Z,7.57
2022-11-29T10:55:52.439Z,7.10
2022-11-29T10:58:14.313Z,10.27
2022-11-29T11:00:21.751Z,7.35
2022-11-29T11:02:30.673Z,7.07
2022-11-29T11:04:46.179Z,10.85
2022-11-29T11:06:57.174Z,7.80
2022-11-29T11:09:25.192Z,7.15
2022-11-29T11:11:34.474Z,9.43
2022-11-29T11:13:42.832Z,13.48
2022-11-29T11:15:50.115Z,17.70
2022-11-29T11:18:04.909Z,13.88
2022-11-29T11:20:25.932Z,15.27
2022-11-29T11:22:34.046Z,9.60
2022-11-29T11:24:44.036Z,13.13
2022-11-29T11:26:51.247Z,16.38
2022-11-29T11:29:01.981Z,13.00
2022-11-29T11:31:10.430Z,11.23
2022-11-29T11:33:24.084Z,12.90
2022-11-29T11:35:30.797Z,12.02
2022-11-29T11:37:38.367Z,11.50
2022-11-29T11:39:45.499Z,9.68
2022-11-29T11:42:25.468Z,8.85
2022-11-29T11:44:48.014Z,11.82
2022-11-29T11:46:56.624Z,10.70
2022-11-29T11:49:05.496Z,17.85
2022-11-29T11:51:24.055Z,15.20
2022-11-29T11:53:34.914Z,16.42
2022-11-29T11:55:44.346Z,15.10
2022-11-29T11:58:04.648Z,18.05
2022-11-29T12:03:39.983Z,15.80
2022-11-29T12:05:51.574Z,18.00
2022-11-29T12:08:10.023Z,17.45
2022-11-29T12:10:26.062Z,14.55
2022-11-29T12:12:36.311Z,15.95
2022-11-29T12:14:53.838Z,20.35
2022-11-29T12:17:15.465Z,19.58
2022-11-29T12:19:33.547Z,19.10
2022-11-29T12:21:47.284Z,16.55
2022-11-29T12:24:01.734Z,17.08
2022-11-29T12:26:34.531Z,17.92
2022-11-29T12:28:44.672Z,20.23
2022-11-29T12:30:57.881Z,23.10
2022-11-29T12:33:20.338Z,20.88
2022-11-29T12:35:45.948Z,24.42
2022-11-29T12:38:02.194Z,27.98
2022-11-29T12:40:16.902Z,29.67
2022-11-29T12:42:44.408Z,32.03
2022-11-29T12:44:59.833Z,30.88
2022-11-29T12:49:51.317Z,36.10
2022-11-29T12:52:05.467Z,39.67
2022-11-29T12:54:39.114Z,39.75
2022-11-29T12:56:53.660Z,41.35
2022-11-29T12:59:18.413Z,34.80
2022-11-29T13:01:32.927Z,40.00
2022-11-29T13:03:47.882Z,42.10
2022-11-29T13:06:05.711Z,37.72
2022-11-29T13:08:36.958Z,40.30
2022-11-29T13:10:59.042Z,41.55
2022-11-29T13:13:20.762Z,43.85
2022-11-29T13:17:41.577Z,38.67
2022-11-29T13:19:53.685Z,29.02
2022-11-29T13:22:07.210Z,28.02
2022-11-29T13:24:18.992Z,29.60
2022-11-29T13:26:30.330Z,31.33
2022-11-29T13:28:40.527Z,30.67
2022-11-29T13:30:51.036Z,26.60
2022-11-29T13:33:06.777Z,30.98
2022-11-29T13:35:23.886Z,30.13
2022-11-29T13:37:35.722Z,30.45
2022-11-29T13:39:55.039Z,32.90
2022-11-29T13:42:10.820Z,29.77
2022-11-29T13:44:23.788Z,27.77
2022-11-29T13:46:36.553Z,27.15
2022-11-29T13:48:51.884Z,28.52
2022-11-29T13:53:23.795Z,28.85
2022-11-29T13:55:35.231Z,28.77
2022-11-29T13:58:15.331Z,26.20
2022-11-29T14:00:35.826Z,32.78
2022-11-29T14:02:42.712Z,27.80
2022-11-29T14:04:50.191Z,30.77
2022-11-29T14:07:11.040Z,30.30
2022-11-29T14:09:34.095Z,31.93
2022-11-29T14:11:49.804Z,29.33
2022-11-29T14:14:07.108Z,34.45
2022-11-29T14:16:22.954Z,35.38
2022-11-29T14:19:06.208Z,28.42
2022-11-29T14:21:21.504Z,30.88
2022-11-29T14:23:45.133Z,29.00
2022-11-29T14:26:28.087Z,24.23
2022-11-29T14:28:48.075Z,28.40
2022-11-29T14:31:02.902Z,26.67
2022-11-29T14:36:47.462Z,24.15
2022-11-29T14:39:11.707Z,24.83
2022-11-29T14:41:33.214Z,28.90
2022-11-29T14:43:47.163Z,38.97
2022-11-29T14:46:31.976Z,36.67
2022-11-29T14:48:42.387Z,37.95
2022-11-29T14:50:51.359Z,30.15
2022-11-29T14:53:05.348Z,31.95
2022-11-29T14:55:39.405Z,25.85
2022-11-29T14:58:28.211Z,27.17
2022-11-29T15:01:06.413Z,28.95
2022-11-29T15:03:32.998Z,27.92
2022-11-29T15:05:47.353Z,29.52
2022-11-29T15:08:09.752Z,30.85
2022-11-29T15:10:28.038Z,27.20
2022-11-29T15:12:41.098Z,26.45
2022-11-29T15:15:03.206Z,32.90
2022-11-29T15:17:39.086Z,24.23
2022-11-29T15:20:23.710Z,27.92
2022-11-29T15:22:51.831Z,26.40
2022-11-29T15:25:14.508Z,24.48
2022-11-29T15:27:36.214Z,28.50
2022-11-29T15:29:58.843Z,31.52
2022-11-29T15:32:20.207Z,31.75
2022-11-29T15:34:36.032Z,27.95
2022-11-29T15:36:53.350Z,24.95
2022-11-29T15:39:12.572Z,25.17
2022-11-29T15:41:30.811Z,27.92
2022-11-29T15:43:44.292Z,26.23
2022-11-29T15:45:55.954Z,25.83
2022-11-29T15:48:32.951Z,33.60
2022-11-29T15:50:49.764Z,26.95
2022-11-29T15:53:05.602Z,27.30
2022-11-29T15:55:22.615Z,32.78
2022-11-29T15:57:38.545Z,29.45
2022-11-29T15:59:54.277Z,25.30
2022-11-29T16:02:13.021Z,25.45
2022-11-29T16:06:38.145Z,24.95
2022-11-29T16:08:52.606Z,21.70
2022-11-29T16:11:01.836Z,25.42
2022-11-29T16:13:32.977Z,25.52
2022-11-29T16:15:51.933Z,23.88
2022-11-29T16:18:08.579Z,30.88
2022-11-29T16:20:33.689Z,27.70
2022-11-29T16:22:47.460Z,22.85
2022-11-29T16:25:10.725Z,23.40
2022-11-29T16:27:19.445Z,23.15
2022-11-29T16:29:37.019Z,27.10
2022-11-29T16:31:46.133Z,27.13
2022-11-29T16:33:59.841Z,24.83
2022-11-29T16:36:18.797Z,24.08
2022-11-29T16:38:29.514Z,28.52
2022-11-29T16:40:42.889Z,24.77
2022-11-29T16:43:14.478Z,23.35
2022-11-29T16:45:40.287Z,25.63
2022-11-29T16:47:59.488Z,30.20
2022-11-29T16:50:23.598Z,21.45
2022-11-29T16:52:36.520Z,26.30
2022-11-29T16:54:55.119Z,25.58
2022-11-29T16:57:13.295Z,24.50
2022-11-29T16:59:27.650Z,27.63
2022-11-29T17:01:38.617Z,24.20
2022-11-29T17:03:47.905Z,25.53
2022-11-29T17:05:59.850Z,24.13
2022-11-29T17:08:13.896Z,22.80
2022-11-29T17:10:30.244Z,21.63
2022-11-29T17:12:48.248Z,25.52
2022-11-29T17:14:58.428Z,23.95
2022-11-29T17:17:08.520Z,23.30
2022-11-29T17:19:18.375Z,27.50
2022-11-29T17:21:28.782Z,22.92
2022-11-29T17:23:38.060Z,26.27
2022-11-29T17:25:53.794Z,27.65
2022-11-29T17:28:04.816Z,26.67
2022-11-29T17:30:16.337Z,23.33
2022-11-29T17:32:26.958Z,24.63
2022-11-29T17:34:38.486Z,21.55
2022-11-29T17:36:47.315Z,22.30
2022-11-29T17:38:59.105Z,22.88
2022-11-29T17:41:12.428Z,26.40
2022-11-29T17:43:23.504Z,27.98
2022-11-29T17:45:38.434Z,23.85
2022-11-29T17:47:52.754Z,27.70
2022-11-29T17:50:01.476Z,25.27
2022-11-29T17:52:15.875Z,25.65
2022-11-29T17:54:25.409Z,26.25
2022-11-29T17:56:34.181Z,26.50
2022-11-29T17:58:45.211Z,22.83
2022-11-29T18:00:55.478Z,20.55
2022-11-29T18:03:07.153Z,20.85
2022-11-29T18:05:16.222Z,23.08
2022-11-29T18:07:35.028Z,21.15
2022-11-29T18:09:43.910Z,25.33
2022-11-29T18:11:53.748Z,22.85
2022-11-29T18:14:08.096Z,25.05
2022-11-29T18:16:18.354Z,25.90
2022-11-29T18:18:27.314Z,26.52
2022-11-29T18:20:35.782Z,22.05
2022-11-29T18:22:44.451Z,23.38
2022-11-29T18:25:09.997Z,25.38
2022-11-29T18:27:26.053Z,22.08
2022-11-29T18:29:39.407Z,22.38
2022-11-29T18:31:49.429Z,20.08
2022-11-29T18:33:58.854Z,22.45
2022-11-29T18:36:11.060Z,20.50
2022-11-29T18:38:19.461Z,23.73
2022-11-29T18:40:28.181Z,23.25
2022-11-29T18:42:37.009Z,23.83
2022-11-29T18:44:47.383Z,23.10
2022-11-29T18:46:55.931Z,22.45
2022-11-29T18:49:05.418Z,20.95
2022-11-29T18:51:16.275Z,22.80
2022-11-29T18:53:24.943Z,18.73
2022-11-29T18:55:33.149Z,23.05
2022-11-29T18:57:42.589Z,17.65
2022-11-29T18:59:52.527Z,18.33
2022-11-29T19:02:00.636Z,16.05
2022-11-29T19:04:08.580Z,15.25
2022-11-29T19:06:18.780Z,18.33
2022-11-29T19:08:26.731Z,17.85
2022-11-29T19:10:35.145Z,18.00
2022-11-29T19:12:42.996Z,21.35
2022-11-29T19:14:52.990Z,17.52
2022-11-29T19:17:01.351Z,18.65
2022-11-29T19:19:11.366Z,17.80
2022-11-29T19:21:19.907Z,17.23
2022-11-29T19:23:28.825Z,17.92
2022-11-29T19:25:39.439Z,16.45
2022-11-29T19:27:50.112Z,16.23
2022-11-29T19:29:59.590Z,23.55
2022-11-29T19:32:08.116Z,18.58
2022-11-29T19:34:17.548Z,17.38
2022-11-29T19:36:28.518Z,15.48
2022-11-29T19:38:36.458Z,17.85
2022-11-29T19:40:45.227Z,18.70
2022-11-29T19:42:52.278Z,19.30
2022-11-29T19:45:16.617Z,17.60
2022-11-29T19:47:24.920Z,18.58
2022-11-29T19:49:32.256Z,19.30
2022-11-29T19:51:39.437Z,18.75
2022-11-29T19:53:46.935Z,21.00
2022-11-29T19:55:54.057Z,19.25
2022-11-29T19:58:01.187Z,17.70
2022-11-29T20:00:11.030Z,17.88
2022-11-29T20:02:21.287Z,20.60
2022-11-29T20:04:28.315Z,20.13
2022-11-29T20:06:35.445Z,19.33
2022-11-29T20:08:42.881Z,17.67
2022-11-29T20:10:50.317Z,16.40
2022-11-29T20:12:58.114Z,18.98
2022-11-29T20:15:05.704Z,17.35
2022-11-29T20:17:14.319Z,22.63
2022-11-29T20:19:21.757Z,18.52
2022-11-29T20:21:30.476Z,17.27
2022-11-29T20:23:37.913Z,18.88
2022-11-29T20:25:50.781Z,17.42
2022-11-29T20:27:58.012Z,16.88
2022-11-29T20:30:04.989Z,14.88
2022-11-29T20:32:14.421Z,17.92
2022-11-29T20:34:22.120Z,16.08
2022-11-29T20:36:45.528Z,16.35
2022-11-29T20:38:57.880Z,18.95
2022-11-29T20:41:16.121Z,16.23
2022-11-29T20:43:27.092Z,16.98
2022-11-29T20:45:34.887Z,19.42
2022-11-29T20:47:52.974Z,19.08
2022-11-29T20:50:00.260Z,21.23
2022-11-29T20:52:10.360Z,19.60
2022-11-29T20:54:24.300Z,19.42
2022-11-29T20:56:31.173Z,18.63
2022-11-29T20:58:38.970Z,16.40
2022-11-29T21:00:45.947Z,18.40
2022-11-29T21:02:54.818Z,15.77
2022-11-29T21:05:01.743Z,15.00
2022-11-29T21:07:08.977Z,20.95
2022-11-29T21:09:16.004Z,18.92
2022-11-29T21:11:24.057Z,21.65
2022-11-29T21:13:31.596Z,19.45
2022-11-29T21:15:39.659Z,16.48
2022-11-29T21:17:47.580Z,20.10
2022-11-29T21:19:57.237Z,19.13
2022-11-29T21:22:12.099Z,19.73
2022-11-29T21:24:33.207Z,19.42
2022-11-29T21:26:43.870Z,18.83
2022-11-29T21:29:00.216Z,22.40
2022-11-29T21:31:08.009Z,17.58
2022-11-29T21:33:15.502Z,22.08
2022-11-29T21:35:24.269Z,20.60
2022-11-29T21:37:32.989Z,19.88
2022-11-29T21:39:40.141Z,17.50
2022-11-29T21:41:46.894Z,19.83
2022-11-29T21:44:09.223Z,16.05
2022-11-29T21:48:38.745Z,14.32
2022-11-29T21:50:52.226Z,17.88
2022-11-29T21:52:59.100Z,20.30
2022-11-29T21:55:07.051Z,17.25
2022-11-29T21:57:14.387Z,14.60
2022-11-29T21:59:21.259Z,18.23
2022-11-29T22:01:28.687Z,16.33
2022-11-29T22:03:35.520Z,16.85
2022-11-29T22:05:42.650Z,14.00
2022-11-29T22:07:51.200Z,13.60
2022-11-29T22:09:59.369Z,18.80
2022-11-29T22:12:25.918Z,17.70
2022-11-29T22:14:33.494Z,15.52
2022-11-29T22:16:40.319Z,19.45
2022-11-29T22:18:47.448Z,16.30
2022-11-29T22:20:54.222Z,14.90
2022-11-29T22:23:03.092Z,15.57
2022-11-29T22:25:10.174Z,15.55
2022-11-29T22:27:19.145Z,15.90
2022-11-29T22:29:26.533Z,13.65
2022-11-29T22:31:33.654Z,16.42
2022-11-29T22:33:40.689Z,14.10
2022-11-29T22:35:48.282Z,13.48
2022-11-29T22:37:55.901Z,14.23
2022-11-29T22:40:04.899Z,17.38
2022-11-29T22:42:11.719Z,16.33
2022-11-29T22:44:18.648Z,13.48
2022-11-29T22:46:27.350Z,13.45
2022-11-29T22:48:38.690Z,13.52
2022-11-29T22:50:45.927Z,14.40
2022-11-29T22:52:53.158Z,18.80
2022-11-29T22:55:04.480Z,17.33
2022-11-29T22:57:14.023Z,15.75
2022-11-29T22:59:20.846Z,17.52
2022-11-29T23:01:29.412Z,16.10
2022-11-29T23:03:38.281Z,16.70
2022-11-29T23:05:45.464Z,16.10
2022-11-29T23:07:56.594Z,14.52
2022-11-29T23:10:04.128Z,17.73
2022-11-29T23:12:13.460Z,14.32
2022-11-29T23:14:20.852Z,15.95
2022-11-29T23:16:29.114Z,14.48
2022-11-29T23:18:36.593Z,14.07
2022-11-29T23:20:43.417Z,14.50
2022-11-29T23:22:50.604Z,11.38
2022-11-29T23:24:57.472Z,12.75
2022-11-29T23:27:04.551Z,12.43
2022-11-29T23:29:15.110Z,13.48
2022-11-29T23:31:22.943Z,13.00
2022-11-29T23:33:30.703Z,13.30
2022-11-29T23:35:37.884Z,12.98
2022-11-29T23:37:44.709Z,13.57
2022-11-29T23:39:52.145Z,12.88
2022-11-29T23:41:58.869Z,12.30
2022-11-29T23:44:07.331Z,11.90
2022-11-29T23:46:18.743Z,13.77
2022-11-29T23:50:32.307Z,12.25
2022-11-29T23:52:39.586Z,10.57
2022-11-29T23:54:46.700Z,11.18
2022-11-29T23:56:53.899Z,11.70
2022-11-29T23:59:00.724Z,9.45
